Time;durP1;ratioP1;P1;durP2;ratioP2;P2;SDS_P1;SDS_P2;PMS_P1;PMS_P2;Temp;Humidity;BMP_temperature;BMP_pressure;BME280_temperature;BME280_humidity;BME280_pressure;Samples;Min_cycle;Max_cycle;Signal;HPM_P1;HPM_P2
2021/06/08 00:00:00;;;;;;;7.95;3.75;;;14.40;99.90;;;;;;6013451;23;20014;-87
2021/06/08 00:02:29;;;;;;;3.13;2.83;;;14.40;99.90;;;;;;6038668;23;20595;-89
2021/06/08 00:04:59;;;;;;;3.17;2.85;;;14.40;99.90;;;;;;6012734;23;20461;-88
2021/06/08 00:07:35;;;;;;;3.45;2.92;;;14.30;99.90;;;;;;6040226;23;20023;-86
2021/06/08 00:10:05;;;;;;;2.78;2.58;;;14.30;99.90;;;;;;6038270;23;20034;-88
2021/06/08 00:12:33;;;;;;;3.00;2.42;;;14.40;99.90;;;;;;6015972;23;20380;-86
2021/06/08 00:15:01;;;;;;;3.45;3.10;;;14.30;99.90;;;;;;6015202;23;20029;-86
2021/06/08 00:17:29;;;;;;;5.75;3.22;;;14.30;99.90;;;;;;6038575;23;20262;-85
2021/06/08 00:19:57;;;;;;;16.80;5.97;;;14.20;99.90;;;;;;6036915;23;20529;-86
2021/06/08 00:22:26;;;;;;;3.13;2.92;;;14.20;99.90;;;;;;6038603;23;20030;-87
2021/06/08 00:24:54;;;;;;;4.95;3.45;;;14.20;99.90;;;;;;6015363;23;20027;-86
2021/06/08 00:27:21;;;;;;;5.47;4.10;;;14.10;99.90;;;;;;6039406;23;20018;-87
2021/06/08 00:29:49;;;;;;;3.40;2.35;;;14.10;99.90;;;;;;6014738;23;20027;-87
2021/06/08 00:32:17;;;;;;;6.00;2.83;;;14.10;99.90;;;;;;6039376;23;20466;-89
2021/06/08 00:34:47;;;;;;;3.55;2.78;;;14.00;99.90;;;;;;6061332;23;20042;-89
2021/06/08 00:37:14;;;;;;;4.03;3.08;;;14.00;99.90;;;;;;6071607;23;20019;-88
2021/06/08 00:39:42;;;;;;;3.30;3.00;;;14.00;99.90;;;;;;6073029;23;20026;-85
2021/06/08 00:42:10;;;;;;;3.90;3.00;;;13.90;99.90;;;;;;6038102;23;20023;-88
2021/06/08 00:44:39;;;;;;;3.28;3.08;;;13.90;99.90;;;;;;6062858;23;20341;-87
2021/06/08 00:47:07;;;;;;;3.60;3.38;;;13.90;99.90;;;;;;6016245;23;20031;-89
2021/06/08 00:49:35;;;;;;;4.70;2.42;;;13.80;99.90;;;;;;6036956;23;20023;-88
2021/06/08 00:52:05;;;;;;;2.60;1.95;;;13.80;99.90;;;;;;6061575;23;20351;-88
2021/06/08 00:54:33;;;;;;;4.43;3.15;;;13.60;99.90;;;;;;6040319;23;20034;-88
2021/06/08 00:57:01;;;;;;;3.78;3.47;;;13.60;99.90;;;;;;6038164;23;20451;-87
2021/06/08 00:59:29;;;;;;;2.80;2.60;;;13.60;99.90;;;;;;6048662;23;20027;-87
2021/06/08 01:01:57;;;;;;;4.93;2.47;;;13.60;99.90;;;;;;6038317;23;20033;-87
2021/06/08 01:04:25;;;;;;;2.65;2.45;;;13.60;99.90;;;;;;6037540;23;20026;-87
2021/06/08 01:06:53;;;;;;;7.00;2.75;;;13.70;99.90;;;;;;6063477;23;20027;-85
2021/06/08 01:09:21;;;;;;;3.85;2.80;;;13.60;99.90;;;;;;6062580;23;20027;-86
2021/06/08 01:11:49;;;;;;;3.22;2.33;;;13.60;99.90;;;;;;6047596;23;20697;-87
2021/06/08 01:14:17;;;;;;;3.33;2.70;;;13.50;99.90;;;;;;6062847;23;20354;-86
2021/06/08 01:16:45;;;;;;;11.40;3.13;;;13.50;99.90;;;;;;6038380;23;20023;-86
2021/06/08 01:19:13;;;;;;;3.60;2.63;;;13.40;99.90;;;;;;6072275;23;20019;-85
2021/06/08 01:21:41;;;;;;;3.50;2.72;;;13.40;99.90;;;;;;6038144;23;20022;-87
2021/06/08 01:24:09;;;;;;;2.60;2.40;;;13.40;99.90;;;;;;6039116;23;20018;-87
2021/06/08 01:26:38;;;;;;;6.63;2.88;;;13.40;99.90;;;;;;6061532;23;20441;-87
2021/06/08 01:29:08;;;;;;;3.70;2.88;;;13.30;99.90;;;;;;6070984;23;20053;-88
2021/06/08 01:31:37;;;;;;;2.80;2.60;;;13.40;99.90;;;;;;6038606;23;20030;-86
2021/06/08 01:34:06;;;;;;;3.28;2.92;;;13.40;99.90;;;;;;6036097;23;20031;-87
2021/06/08 01:36:41;;;;;;;2.70;2.50;;;13.40;99.90;;;;;;6061952;23;20030;-88
2021/06/08 01:39:10;;;;;;;2.40;2.20;;;13.50;99.90;;;;;;6022999;23;20033;-87
2021/06/08 01:41:39;;;;;;;4.57;4.18;;;13.50;99.90;;;;;;6014034;23;20029;-87
2021/06/08 01:44:12;;;;;;;3.83;3.45;;;13.40;99.90;;;;;;6038294;23;20355;-88
2021/06/08 01:46:40;;;;;;;4.47;3.03;;;13.40;99.90;;;;;;6033526;23;20039;-87
2021/06/08 01:49:08;;;;;;;2.35;2.15;;;13.40;99.90;;;;;;6007990;23;20038;-87
2021/06/08 01:52:13;;;;;;;2.72;2.38;;;13.30;99.90;;;;;;6033033;23;20451;-88
2021/06/08 01:54:55;;;;;;;3.17;2.92;;;13.30;99.90;;;;;;6036383;23;20463;-89
2021/06/08 01:57:52;;;;;;;4.32;3.38;;;13.40;99.90;;;;;;6034581;23;20684;-89
2021/06/08 02:00:50;;;;;;;3.08;2.78;;;13.40;99.90;;;;;;6033233;23;20023;-88
2021/06/08 02:04:07;;;;;;;3.38;3.08;;;13.30;99.90;;;;;;6053498;23;20035;-85
2021/06/08 02:06:45;;;;;;;5.35;3.53;;;13.30;99.90;;;;;;6028836;23;20031;-89
2021/06/08 02:09:41;;;;;;;3.78;3.47;;;13.20;99.90;;;;;;6042432;23;20015;-89
2021/06/08 02:12:18;;;;;;;3.97;2.13;;;13.20;99.90;;;;;;6008907;23;20019;-88
2021/06/08 02:14:56;;;;;;;4.20;3.72;;;13.20;99.90;;;;;;6009706;23;20027;-87
2021/06/08 02:17:55;;;;;;;3.20;2.70;;;13.00;99.90;;;;;;5986475;23;20035;-87
2021/06/08 02:20:25;;;;;;;3.35;3.05;;;12.80;99.90;;;;;;6032352;23;20020;-88
2021/06/08 02:23:24;;;;;;;2.72;2.50;;;12.70;99.90;;;;;;6009963;23;20034;-87
2021/06/08 02:25:53;;;;;;;4.13;3.20;;;12.70;99.90;;;;;;6030400;23;20023;-87
2021/06/08 02:28:26;;;;;;;8.63;2.70;;;12.70;99.90;;;;;;6010306;23;20027;-87
2021/06/08 02:30:56;;;;;;;2.53;2.10;;;12.70;99.90;;;;;;6031652;23;20034;-88
2021/06/08 02:33:25;;;;;;;5.50;2.78;;;12.60;99.90;;;;;;6009450;23;20035;-88
2021/06/08 02:35:55;;;;;;;3.63;2.40;;;12.50;99.90;;;;;;6000530;23;20028;-88
2021/06/08 02:38:24;;;;;;;3.30;3.00;;;12.50;99.90;;;;;;5981082;23;20028;-88
2021/06/08 02:40:52;;;;;;;5.97;3.13;;;12.50;99.90;;;;;;6012817;23;20026;-87
2021/06/08 02:43:23;;;;;;;4.20;3.80;;;12.50;99.90;;;;;;6003710;23;20023;-88
2021/06/08 02:45:51;;;;;;;3.42;3.17;;;12.50;99.90;;;;;;6008220;23;20024;-87
2021/06/08 02:48:21;;;;;;;3.35;3.00;;;12.40;99.90;;;;;;6034896;23;20023;-86
2021/06/08 02:50:49;;;;;;;3.08;2.78;;;12.30;99.90;;;;;;6007185;23;20495;-86
2021/06/08 02:53:18;;;;;;;2.80;2.60;;;12.20;99.90;;;;;;6009681;23;20467;-88
2021/06/08 02:55:46;;;;;;;5.63;3.20;;;12.20;99.90;;;;;;6009597;23;20023;-87
2021/06/08 02:58:15;;;;;;;3.40;2.80;;;12.20;99.90;;;;;;5985283;23;20027;-88
2021/06/08 03:00:45;;;;;;;6.05;4.13;;;12.20;99.90;;;;;;5985777;23;20026;-88
2021/06/08 03:03:17;;;;;;;3.50;2.97;;;12.20;99.90;;;;;;5987066;23;20019;-88
2021/06/08 03:05:51;;;;;;;3.72;3.42;;;12.20;99.90;;;;;;5961350;23;20351;-88
2021/06/08 03:08:29;;;;;;;3.58;2.90;;;12.30;99.90;;;;;;5986444;23;20026;-87
2021/06/08 03:10:59;;;;;;;3.55;3.17;;;12.30;99.90;;;;;;6009527;23;20020;-88
2021/06/08 03:13:28;;;;;;;4.82;4.35;;;12.30;99.90;;;;;;5962462;23;20074;-86
2021/06/08 03:15:59;;;;;;;3.90;3.50;;;12.20;99.90;;;;;;6044218;23;20023;-88
2021/06/08 03:18:32;;;;;;;3.08;2.72;;;12.30;99.90;;;;;;5962910;23;20034;-84
2021/06/08 03:21:03;;;;;;;4.20;3.78;;;12.30;99.90;;;;;;6040762;23;20493;-86
2021/06/08 03:23:36;;;;;;;4.75;4.35;;;12.40;99.90;;;;;;6009842;23;20026;-87
2021/06/08 03:26:06;;;;;;;10.30;4.80;;;12.50;99.90;;;;;;6013224;23;20023;-86
2021/06/08 03:28:36;;;;;;;4.10;3.58;;;12.60;99.90;;;;;;5986093;23;20060;-87
2021/06/08 03:31:04;;;;;;;5.53;4.07;;;12.60;99.90;;;;;;6033454;23;20023;-86
2021/06/08 03:33:33;;;;;;;11.57;4.50;;;12.70;99.90;;;;;;6007666;23;20039;-84
2021/06/08 03:36:03;;;;;;;8.60;3.63;;;12.70;99.90;;;;;;6045101;23;20016;-86
2021/06/08 03:38:32;;;;;;;3.95;3.20;;;12.80;99.90;;;;;;6035100;23;20058;-86
2021/06/08 03:41:01;;;;;;;5.05;4.28;;;12.80;99.90;;;;;;6043401;23;20078;-86
2021/06/08 03:43:29;;;;;;;5.15;4.13;;;12.90;99.90;;;;;;6011199;23;20034;-85
2021/06/08 03:45:57;;;;;;;4.47;4.07;;;12.90;99.90;;;;;;6014807;23;20039;-84
2021/06/08 03:48:26;;;;;;;4.93;4.53;;;12.90;99.90;;;;;;6045082;23;20023;-87
2021/06/08 03:50:55;;;;;;;7.80;4.65;;;13.00;99.90;;;;;;6009685;23;20024;-87
2021/06/08 03:53:24;;;;;;;6.25;5.20;;;12.90;99.90;;;;;;6042255;23;20027;-86
2021/06/08 03:55:52;;;;;;;5.15;4.40;;;13.00;99.90;;;;;;6046466;23;20212;-86
2021/06/08 03:58:21;;;;;;;4.28;3.85;;;13.00;99.90;;;;;;6010029;23;20035;-86
2021/06/08 04:00:56;;;;;;;4.97;4.32;;;13.00;99.90;;;;;;6043634;23;20019;-86
2021/06/08 04:03:25;;;;;;;5.13;4.00;;;13.10;99.90;;;;;;5988138;23;20447;-86
2021/06/08 04:05:54;;;;;;;4.68;4.22;;;13.00;99.90;;;;;;6009808;23;20023;-85
2021/06/08 04:08:25;;;;;;;5.25;4.20;;;13.10;99.90;;;;;;6021248;23;20030;-85
2021/06/08 04:10:54;;;;;;;5.20;4.80;;;13.10;99.90;;;;;;5986500;23;20027;-85
2021/06/08 04:13:23;;;;;;;9.00;4.03;;;13.10;99.90;;;;;;5987624;23;20038;-86
2021/06/08 04:15:51;;;;;;;5.82;3.70;;;13.10;99.90;;;;;;5987903;23;20019;-83
2021/06/08 04:18:22;;;;;;;14.00;4.35;;;13.10;99.90;;;;;;5987172;23;20486;-85
2021/06/08 04:20:53;;;;;;;5.13;4.53;;;13.10;99.90;;;;;;5985343;23;20019;-85
2021/06/08 04:23:27;;;;;;;11.30;5.13;;;13.10;99.90;;;;;;6011086;23;20023;-86
2021/06/08 04:25:56;;;;;;;4.28;3.58;;;13.10;99.90;;;;;;6014944;23;20122;-86
2021/06/08 04:28:26;;;;;;;5.63;4.15;;;13.20;99.90;;;;;;6020571;23;20023;-84
2021/06/08 04:30:56;;;;;;;3.65;3.35;;;13.30;99.90;;;;;;6009994;23;20027;-87
2021/06/08 04:33:29;;;;;;;6.95;4.03;;;13.30;99.90;;;;;;6010283;23;20758;-87
2021/06/08 04:35:57;;;;;;;3.92;3.58;;;13.40;99.90;;;;;;6035097;23;20019;-87
2021/06/08 04:38:25;;;;;;;5.00;2.97;;;13.40;99.90;;;;;;6034572;23;20034;-86
2021/06/08 04:40:53;;;;;;;4.00;3.70;;;13.50;99.90;;;;;;6043419;23;20339;-88
2021/06/08 04:43:23;;;;;;;4.90;3.85;;;13.60;99.90;;;;;;6045565;23;20455;-86
2021/06/08 04:45:52;;;;;;;5.15;4.50;;;13.70;99.90;;;;;;6034507;23;20027;-85
2021/06/08 04:48:24;;;;;;;3.65;3.22;;;13.70;99.90;;;;;;6046261;23;20020;-82
2021/06/08 04:50:53;;;;;;;4.32;3.92;;;13.80;99.90;;;;;;5984723;23;20023;-85
2021/06/08 04:53:22;;;;;;;3.67;3.38;;;13.80;99.90;;;;;;6010667;23;20054;-84
2021/06/08 04:55:51;;;;;;;3.90;3.60;;;13.80;99.90;;;;;;5987970;23;20015;-86
2021/06/08 04:58:21;;;;;;;4.47;4.07;;;13.80;99.90;;;;;;5986893;23;20458;-87
2021/06/08 05:01:08;;;;;;;4.50;4.10;;;13.80;99.90;;;;;;5985661;23;20024;-86
2021/06/08 05:03:45;;;;;;;5.80;4.68;;;13.90;99.90;;;;;;6009397;23;20023;-86
2021/06/08 05:06:19;;;;;;;5.13;4.60;;;13.90;99.90;;;;;;5995825;23;20027;-91
2021/06/08 05:08:56;;;;;;;3.47;3.17;;;13.80;99.90;;;;;;5986952;23;20023;-91
2021/06/08 05:11:45;;;;;;;4.60;4.05;;;13.90;99.90;;;;;;6010448;23;20035;-87
2021/06/08 05:14:15;;;;;;;5.18;4.55;;;14.00;99.90;;;;;;6034344;23;20054;-87
2021/06/08 05:16:46;;;;;;;8.73;3.92;;;14.20;99.90;;;;;;6009303;23;20030;-84
2021/06/08 05:19:15;;;;;;;7.85;4.45;;;14.40;99.90;;;;;;6009330;23;20024;-85
2021/06/08 05:21:45;;;;;;;5.53;4.97;;;14.60;99.90;;;;;;6034037;23;20023;-85
2021/06/08 05:24:15;;;;;;;8.93;3.85;;;14.60;99.90;;;;;;6020621;23;20023;-84
2021/06/08 05:26:46;;;;;;;5.20;3.70;;;14.50;99.90;;;;;;6034796;23;20497;-84
2021/06/08 05:29:22;;;;;;;11.07;6.82;;;14.40;99.90;;;;;;6016244;23;20023;-86
2021/06/08 05:31:54;;;;;;;5.03;3.88;;;14.30;99.90;;;;;;6010251;23;20482;-84
2021/06/08 05:34:23;;;;;;;7.10;4.32;;;14.20;99.90;;;;;;6010603;23;20028;-86
2021/06/08 05:36:54;;;;;;;4.95;4.45;;;14.20;99.90;;;;;;6037211;23;20026;-86
2021/06/08 05:39:34;;;;;;;4.85;4.35;;;14.30;99.90;;;;;;6012798;23;20024;-86
2021/06/08 05:42:05;;;;;;;4.90;4.38;;;14.40;99.90;;;;;;5966019;23;20030;-88
2021/06/08 05:44:34;;;;;;;4.07;3.67;;;14.60;99.90;;;;;;6046909;23;20494;-86
2021/06/08 05:47:05;;;;;;;5.97;4.47;;;14.70;99.90;;;;;;6035325;23;20027;-84
2021/06/08 05:49:37;;;;;;;4.38;3.95;;;14.80;99.90;;;;;;5986198;23;20046;-85
2021/06/08 05:52:06;;;;;;;;;;;14.80;99.90;;;;;;6012550;23;20015;-86
2021/06/08 05:54:35;;;;;;;6.03;5.03;;;14.80;99.90;;;;;;6011657;23;19921;-89
2021/06/08 05:57:04;;;;;;;5.53;4.78;;;14.80;99.90;;;;;;6011559;23;20027;-87
2021/06/08 05:59:32;;;;;;;5.93;4.38;;;14.80;99.90;;;;;;6012601;23;20023;-87
2021/06/08 06:02:00;;;;;;;8.68;4.57;;;15.00;99.90;;;;;;6036144;23;20031;-87
2021/06/08 06:04:28;;;;;;;13.25;5.82;;;15.20;99.90;;;;;;6039040;23;20019;-89
2021/06/08 06:06:58;;;;;;;7.13;4.78;;;15.40;99.90;;;;;;6013937;23;20522;-89
2021/06/08 06:09:32;;;;;;;6.93;6.22;;;15.50;99.90;;;;;;6045928;23;20352;-90
2021/06/08 06:12:07;;;;;;;7.28;4.78;;;15.60;99.90;;;;;;6024526;23;20491;-84
2021/06/08 06:14:42;;;;;;;7.18;6.00;;;15.50;99.90;;;;;;5966367;23;20502;-82
2021/06/08 06:17:11;;;;;;;5.60;4.78;;;15.30;99.90;;;;;;6035690;23;20030;-81
2021/06/08 06:19:41;;;;;;;10.63;5.85;;;15.30;99.90;;;;;;6012053;23;20462;-88
2021/06/08 06:22:11;;;;;;;8.57;7.07;;;15.40;99.90;;;;;;5988318;23;20085;-83
2021/06/08 06:24:44;;;;;;;8.50;5.85;;;15.40;99.90;;;;;;6045499;23;20024;-88
2021/06/08 06:27:12;;;;;;;12.70;6.70;;;15.50;99.90;;;;;;5987680;23;20020;-87
2021/06/08 06:29:40;;;;;;;13.57;8.38;;;15.70;99.90;;;;;;6010830;23;20526;-88
2021/06/08 06:32:14;;;;;;;12.20;6.95;;;15.90;99.90;;;;;;5988263;23;20023;-91
2021/06/08 06:34:43;;;;;;;6.68;5.85;;;16.00;99.90;;;;;;6010487;23;20027;-89
2021/06/08 06:37:12;;;;;;;8.98;6.18;;;16.10;99.90;;;;;;6042123;23;20027;-88
2021/06/08 06:39:49;;;;;;;9.30;7.15;;;16.20;99.90;;;;;;6036287;23;20061;-92
2021/06/08 06:42:18;;;;;;;19.60;6.88;;;16.40;99.90;;;;;;6008844;23;20028;-89
2021/06/08 06:44:50;;;;;;;7.78;6.97;;;16.40;99.90;;;;;;6010492;23;20325;-86
2021/06/08 06:47:19;;;;;;;10.65;8.40;;;16.40;99.90;;;;;;5977758;23;20028;-85
2021/06/08 06:49:49;;;;;;;9.50;8.18;;;16.30;99.90;;;;;;5977581;23;20016;-85
2021/06/08 06:52:18;;;;;;;8.10;7.30;;;16.20;99.90;;;;;;5979345;24;20023;-86
2021/06/08 06:54:49;;;;;;;11.82;8.60;;;16.30;99.90;;;;;;5978171;23;20024;-87
2021/06/08 06:57:20;;;;;;;8.27;7.20;;;16.50;99.90;;;;;;5955266;23;20025;-86
2021/06/08 06:59:51;;;;;;;6.70;6.05;;;16.50;99.90;;;;;;5978279;24;20024;-87
2021/06/08 07:02:23;;;;;;;9.25;7.32;;;16.60;99.90;;;;;;5981741;23;20460;-86
2021/06/08 07:05:57;;;;;;;8.55;7.72;;;16.80;99.90;;;;;;5977240;23;20352;-86
2021/06/08 07:08:27;;;;;;;12.15;8.10;;;17.00;99.90;;;;;;5988911;23;20020;-82
2021/06/08 07:10:56;;;;;;;9.75;8.45;;;17.30;99.90;;;;;;5977720;23;20032;-81
2021/06/08 07:13:26;;;;;;;11.10;7.82;;;17.80;99.90;;;;;;5985256;23;20032;-81
2021/06/08 07:15:55;;;;;;;7.38;6.63;;;18.50;99.90;;;;;;5979630;23;20341;-82
2021/06/08 07:18:23;;;;;;;9.27;8.18;;;19.80;99.90;;;;;;5981753;23;20028;-81
2021/06/08 07:20:52;;;;;;;10.32;8.45;;;20.70;99.90;;;;;;5986901;23;20020;-83
2021/06/08 07:23:24;;;;;;;11.38;8.77;;;21.80;99.90;;;;;;5979324;23;20020;-83
2021/06/08 07:25:56;;;;;;;17.90;7.85;;;22.60;99.90;;;;;;5979304;23;20360;-81
2021/06/08 07:28:45;;;;;;;9.75;8.55;;;23.30;99.10;;;;;;5979411;23;20459;-85
2021/06/08 07:31:44;;;;;;;10.37;9.03;;;22.90;99.90;;;;;;5976504;23;20032;-87
2021/06/08 07:34:51;;;;;;;7.78;6.93;;;22.20;99.90;;;;;;5933916;23;20304;-89
2021/06/08 07:37:50;;;;;;;26.10;7.88;;;21.20;99.90;;;;;;5936624;24;20036;-88
2021/06/08 07:40:54;;;;;;;10.18;8.25;;;20.80;99.90;;;;;;5949197;24;20452;-90
2021/06/08 07:43:42;;;;;;;10.40;6.68;;;21.20;99.90;;;;;;5924748;24;20057;-90
2021/06/08 07:46:19;;;;;;;9.02;7.43;;;22.30;99.90;;;;;;5953621;23;20028;-84
2021/06/08 07:48:54;;;;;;;8.98;8.07;;;23.00;99.90;;;;;;5975669;23;20032;-84
2021/06/08 07:51:55;;;;;;;8.03;7.23;;;22.60;99.90;;;;;;5976754;24;20032;-87
2021/06/08 07:54:41;;;;;;;11.75;9.45;;;22.00;99.90;;;;;;5973737;23;20265;-89
2021/06/08 07:57:09;;;;;;;11.55;10.10;;;21.20;99.90;;;;;;5961117;23;20032;-85
2021/06/08 07:59:39;;;;;;;11.23;10.13;;;20.60;99.90;;;;;;5983456;24;20016;-86
2021/06/08 08:02:10;;;;;;;16.35;9.50;;;20.60;99.90;;;;;;5972184;23;20028;-87
2021/06/08 08:04:41;;;;;;;12.93;11.10;;;20.40;99.90;;;;;;5971604;23;20020;-84
2021/06/08 08:07:10;;;;;;;11.18;10.05;;;20.20;99.90;;;;;;6000589;23;20212;-85
2021/06/08 08:09:40;;;;;;;10.00;8.75;;;19.80;99.90;;;;;;6006182;23;20238;-85
2021/06/08 08:12:48;;;;;;;11.25;9.68;;;19.50;99.90;;;;;;6016238;23;20460;-87
2021/06/08 08:15:17;;;;;;;12.02;9.75;;;19.60;99.90;;;;;;5986280;23;20027;-86
2021/06/08 08:17:56;;;;;;;11.07;9.32;;;19.50;99.90;;;;;;6005499;23;20024;-86
2021/06/08 08:21:37;;;;;;;16.83;11.63;;;19.50;99.90;;;;;;6003314;23;20018;-87
2021/06/08 08:25:03;;;;;;;12.40;9.80;;;19.40;99.90;;;;;;6007838;23;20359;-88
2021/06/08 08:28:10;;;;;;;11.05;9.68;;;18.90;99.90;;;;;;5934543;23;20032;-86
2021/06/08 08:30:38;;;;;;;10.48;9.35;;;18.90;99.90;;;;;;5976693;23;20486;-84
2021/06/08 08:33:07;;;;;;;11.00;9.75;;;18.90;99.90;;;;;;5980177;23;20325;-86
2021/06/08 08:35:38;;;;;;;;;;;19.10;99.90;;;;;;5982608;23;20024;-86
2021/06/08 08:38:08;;;;;;;13.05;9.38;;;19.30;99.90;;;;;;6007303;23;19945;-87
2021/06/08 08:40:36;;;;;;;14.07;11.38;;;19.20;99.90;;;;;;5961396;23;20019;-85
2021/06/08 08:43:04;;;;;;;11.95;10.77;;;19.40;99.90;;;;;;6006311;23;20020;-85
2021/06/08 08:45:32;;;;;;;11.80;9.25;;;19.40;99.90;;;;;;6005071;23;20352;-83
2021/06/08 08:48:00;;;;;;;13.02;11.00;;;19.50;99.90;;;;;;6033910;23;20027;-88
2021/06/08 08:50:29;;;;;;;11.63;10.43;;;19.50;99.90;;;;;;5983763;23;20039;-85
2021/06/08 08:53:04;;;;;;;14.25;10.50;;;19.70;99.90;;;;;;6009934;23;20020;-86
2021/06/08 08:55:34;;;;;;;14.73;13.05;;;19.80;99.90;;;;;;5987284;23;20026;-85
2021/06/08 08:58:08;;;;;;;14.13;10.88;;;19.90;99.90;;;;;;6022196;23;20079;-86
2021/06/08 09:00:41;;;;;;;10.38;8.75;;;20.00;99.90;;;;;;6007534;23;20371;-89
2021/06/08 09:03:13;;;;;;;9.82;8.65;;;20.10;99.90;;;;;;5987509;23;20019;-85
2021/06/08 09:05:43;;;;;;;12.73;10.00;;;20.40;99.90;;;;;;5984902;23;20027;-86
2021/06/08 09:08:14;;;;;;;10.40;9.40;;;20.60;99.90;;;;;;6042764;23;20030;-89
2021/06/08 09:10:42;;;;;;;18.85;10.32;;;20.80;99.90;;;;;;6005926;23;20019;-92
2021/06/08 09:13:50;;;;;;;9.82;8.85;;;20.90;99.90;;;;;;5997464;23;20027;-88
2021/06/08 09:16:22;;;;;;;11.82;9.32;;;20.80;99.90;;;;;;5964757;23;20414;-88
2021/06/08 09:19:42;;;;;;;10.18;9.10;;;20.60;99.90;;;;;;5986563;23;20023;-85
2021/06/08 09:22:13;;;;;;;10.30;8.98;;;20.70;99.90;;;;;;6010339;23;20027;-88
2021/06/08 09:24:55;;;;;;;10.50;9.18;;;21.00;99.90;;;;;;5975203;23;20026;-88
2021/06/08 09:27:40;;;;;;;9.05;7.57;;;21.10;99.90;;;;;;5980626;23;20023;-90
2021/06/08 09:30:35;;;;;;;9.80;8.48;;;21.30;99.90;;;;;;5984449;23;20038;-85
2021/06/08 09:33:21;;;;;;;9.43;8.43;;;21.30;99.90;;;;;;6041512;23;20027;-86
2021/06/08 09:36:44;;;;;;;10.25;8.60;;;21.40;99.90;;;;;;5984213;23;20016;-92
2021/06/08 09:39:35;;;;;;;10.68;9.63;;;21.20;99.90;;;;;;6028352;23;20300;-91
2021/06/08 09:42:26;;;;;;;11.70;7.97;;;21.00;99.90;;;;;;6008271;23;20019;-87
2021/06/08 09:45:17;;;;;;;9.35;8.43;;;21.20;99.90;;;;;;6017940;23;20058;-86
2021/06/08 09:48:01;;;;;;;9.40;8.40;;;21.20;99.90;;;;;;6032419;23;20336;-86
2021/06/08 09:51:51;;;;;;;8.18;7.38;;;21.20;99.90;;;;;;5983899;23;20031;-90
2021/06/08 09:54:52;;;;;;;14.07;9.55;;;21.20;99.90;;;;;;5985249;23;20027;-87
2021/06/08 09:57:28;;;;;;;9.57;8.57;;;21.30;99.90;;;;;;5984364;23;20360;-85
2021/06/08 10:00:07;;;;;;;10.50;9.40;;;21.30;99.90;;;;;;6008845;23;20026;-86
2021/06/08 10:02:55;;;;;;;9.07;8.27;;;21.20;99.90;;;;;;6031748;23;20019;-86
2021/06/08 10:05:29;;;;;;;8.40;7.30;;;21.20;99.90;;;;;;6014754;23;20027;-87
2021/06/08 10:08:19;;;;;;;10.75;9.80;;;21.20;99.90;;;;;;5998890;23;20027;-89
2021/06/08 10:11:25;;;;;;;9.82;8.63;;;21.20;99.90;;;;;;5953801;23;20027;-88
2021/06/08 10:14:17;;;;;;;9.65;8.32;;;21.10;99.90;;;;;;5996584;23;20015;-84
2021/06/08 10:32:31;;;;;;;9.23;8.32;;;21.70;99.90;;;;;;6040782;23;20029;-87
2021/06/08 10:35:41;;;;;;;8.75;7.88;;;21.90;99.90;;;;;;6065898;23;20026;-87
2021/06/08 10:38:10;;;;;;;7.60;6.88;;;22.20;99.90;;;;;;6068459;23;20476;-83
2021/06/08 10:40:41;;;;;;;10.27;8.15;;;22.30;99.70;;;;;;6091718;23;20073;-83
2021/06/08 10:43:20;;;;;;;17.33;10.77;;;22.30;99.50;;;;;;6067855;23;20019;-81
2021/06/08 10:45:50;;;;;;;7.43;6.80;;;22.40;99.90;;;;;;6042574;23;20022;-85
2021/06/08 10:48:28;;;;;;;6.07;5.47;;;22.40;99.10;;;;;;6093235;23;20026;-81
2021/06/08 10:51:18;;;;;;;10.80;5.72;;;22.40;99.90;;;;;;6019768;23;20045;-81
2021/06/08 10:53:46;;;;;;;9.70;6.03;;;22.60;99.40;;;;;;6066335;23;20034;-84
2021/06/08 10:56:23;;;;;;;6.13;5.63;;;22.50;98.10;;;;;;6068036;23;20022;-84
2021/06/08 10:59:02;;;;;;;5.47;4.97;;;22.30;97.30;;;;;;6043888;23;20377;-84
2021/06/08 11:04:11;;;;;;;5.18;4.65;;;22.20;95.30;;;;;;6067491;23;19921;-82
2021/06/08 11:06:47;;;;;;;5.85;5.20;;;22.20;97.00;;;;;;6067339;23;20026;-83
2021/06/08 11:09:25;;;;;;;6.47;5.88;;;22.20;97.00;;;;;;6068575;23;20029;-83
2021/06/08 11:11:58;;;;;;;10.40;5.63;;;22.30;97.10;;;;;;6068286;23;20477;-82
2021/06/08 11:14:30;;;;;;;5.85;5.35;;;22.30;96.80;;;;;;6067036;23;20026;-80
2021/06/08 11:16:58;;;;;;;6.13;5.63;;;22.30;98.10;;;;;;6093097;23;20026;-82
2021/06/08 11:19:51;;;;;;;7.00;5.90;;;22.40;97.50;;;;;;6068048;23;20030;-84
2021/06/08 11:22:33;;;;;;;7.57;6.47;;;22.40;96.30;;;;;;6043635;23;20029;-85
2021/06/08 11:25:25;;;;;;;7.95;7.25;;;22.30;95.20;;;;;;6062650;23;20074;-81
2021/06/08 11:27:57;;;;;;;6.40;5.90;;;22.50;97.00;;;;;;6063236;23;20026;-84
2021/06/08 11:30:33;;;;;;;7.03;6.32;;;22.70;99.50;;;;;;6063335;23;20030;-83
2021/06/08 11:33:08;;;;;;;5.68;5.18;;;22.80;95.80;;;;;;6038018;23;20027;-83
2021/06/08 11:35:42;;;;;;;7.15;5.15;;;22.70;96.40;;;;;;6063224;23;20443;-82
2021/06/08 11:38:23;;;;;;;7.80;6.00;;;22.90;95.30;;;;;;6063885;23;20030;-83
2021/06/08 11:41:01;;;;;;;5.65;5.07;;;22.80;96.50;;;;;;6062238;23;20019;-89
2021/06/08 11:43:29;;;;;;;5.22;4.50;;;22.80;95.80;;;;;;6087667;23;20019;-88
2021/06/08 11:46:02;;;;;;;5.78;5.30;;;22.90;93.80;;;;;;6061208;23;20037;-88
2021/06/08 11:48:43;;;;;;;11.90;5.90;;;22.90;94.90;;;;;;6060878;23;20458;-88
2021/06/08 11:51:14;;;;;;;5.22;4.68;;;22.90;95.50;;;;;;6031731;23;20034;-89
2021/06/08 11:54:05;;;;;;;;;;;22.90;92.40;;;;;;6060466;23;20027;-90
2021/06/08 11:56:56;;;;;;;5.90;5.32;;;22.80;94.10;;;;;;6030213;23;19928;-90
2021/06/08 11:59:24;;;;;;;;;;;22.80;92.00;;;;;;6060134;23;20041;-86
2021/06/08 12:01:56;;;;;;;5.30;4.82;;;22.80;95.40;;;;;;6038528;23;20249;-89
2021/06/08 12:04:27;;;;;;;4.68;4.35;;;22.80;98.40;;;;;;6060720;23;20023;-87
2021/06/08 12:07:00;;;;;;;5.93;4.45;;;22.80;93.00;;;;;;6038873;23;20443;-89
2021/06/08 12:09:36;;;;;;;4.82;4.43;;;22.90;94.30;;;;;;6037824;23;20350;-91
2021/06/08 12:12:11;;;;;;;5.72;5.22;;;22.80;92.20;;;;;;6038560;23;20563;-88
2021/06/08 12:14:56;;;;;;;5.60;5.10;;;22.80;93.70;;;;;;6062264;23;20023;-90
2021/06/08 12:17:24;;;;;;;6.63;6.13;;;22.80;94.80;;;;;;6064314;23;20037;-88
2021/06/08 12:19:59;;;;;;;7.43;5.65;;;22.80;96.30;;;;;;6060341;23;20587;-89
2021/06/08 12:22:30;;;;;;;11.68;5.55;;;22.90;97.70;;;;;;6060688;23;20347;-89
2021/06/08 12:25:04;;;;;;;5.27;4.87;;;22.90;94.30;;;;;;6062215;23;20026;-89
2021/06/08 12:27:38;;;;;;;6.25;4.82;;;22.90;96.20;;;;;;6064043;23;20022;-89
2021/06/08 12:30:16;;;;;;;6.28;5.68;;;23.00;95.40;;;;;;6061593;23;20023;-91
2021/06/08 12:32:54;;;;;;;4.50;3.58;;;23.10;94.90;;;;;;6038316;23;20023;-89
2021/06/08 12:35:36;;;;;;;5.97;5.47;;;23.20;93.60;;;;;;6063665;23;20022;-87
2021/06/08 12:38:22;;;;;;;5.03;4.47;;;23.30;94.90;;;;;;6063307;23;20023;-89
2021/06/08 12:41:01;;;;;;;6.55;4.53;;;23.40;96.60;;;;;;6063918;23;20026;-90
2021/06/08 12:43:55;;;;;;;4.68;4.28;;;23.50;92.30;;;;;;6063725;23;20019;-89
2021/06/08 12:46:40;;;;;;;5.20;4.70;;;23.40;92.20;;;;;;6062038;23;20399;-90
2021/06/08 12:49:15;;;;;;;5.20;4.80;;;23.30;90.90;;;;;;6060895;23;20023;-88
2021/06/08 12:51:53;;;;;;;3.95;3.65;;;23.20;92.50;;;;;;6063173;23;20486;-88
2021/06/08 12:54:30;;;;;;;4.68;4.28;;;23.30;91.60;;;;;;6062006;23;20447;-90
2021/06/08 12:57:00;;;;;;;3.65;3.35;;;23.40;90.10;;;;;;6016486;23;20019;-88
2021/06/08 12:59:32;;;;;;;4.32;3.92;;;23.40;86.20;;;;;;6063893;23;20031;-86
2021/06/08 13:02:11;;;;;;;4.70;4.30;;;23.50;87.30;;;;;;6061855;23;20027;-86
2021/06/08 13:04:49;;;;;;;4.50;4.10;;;23.50;84.90;;;;;;6039838;23;20042;-85
2021/06/08 13:07:37;;;;;;;9.48;4.78;;;23.50;89.00;;;;;;6028084;23;20378;-86
2021/06/08 13:10:09;;;;;;;4.35;4.05;;;23.50;87.50;;;;;;6037846;23;20023;-84
2021/06/08 13:12:42;;;;;;;5.60;5.20;;;23.70;90.10;;;;;;6038840;23;20271;-84
2021/06/08 13:15:14;;;;;;;6.90;4.88;;;23.70;90.60;;;;;;6064121;23;20023;-82
2021/06/08 13:17:46;;;;;;;5.32;4.82;;;23.70;90.10;;;;;;6062070;23;20369;-86
2021/06/08 13:20:32;;;;;;;4.53;4.05;;;23.70;89.20;;;;;;6060163;23;20019;-85
2021/06/08 13:23:04;;;;;;;4.13;3.83;;;23.50;86.00;;;;;;6038317;23;20023;-83
2021/06/08 13:25:38;;;;;;;4.20;3.88;;;23.50;86.10;;;;;;6035993;23;20030;-85
2021/06/08 13:28:26;;;;;;;3.83;3.53;;;23.50;84.00;;;;;;6038513;23;20042;-85
2021/06/08 13:31:13;;;;;;;4.60;4.07;;;23.50;86.50;;;;;;6036435;23;20474;-85
2021/06/08 13:33:45;;;;;;;4.38;3.95;;;23.50;83.90;;;;;;6037066;23;20031;-85
2021/06/08 13:36:31;;;;;;;7.90;3.83;;;23.60;88.30;;;;;;6037964;23;20023;-86
2021/06/08 13:39:23;;;;;;;4.45;4.05;;;23.60;83.70;;;;;;6037670;23;20026;-83
2021/06/08 13:41:54;;;;;;;5.60;3.72;;;23.70;89.90;;;;;;6059829;23;20038;-81
2021/06/08 13:44:23;;;;;;;4.28;3.88;;;23.80;79.90;;;;;;6037347;23;20582;-82
2021/06/08 13:47:00;;;;;;;3.70;3.42;;;23.80;81.90;;;;;;6037407;23;20390;-84